<?xml version="1.0" encoding="UTF-8" standalone="no" ?><gpx xmlns="http://www.topografix.com/GPX/1/1" xmlns:gpxx="http://www.garmin.com/xmlschemas/GpxExtensions/v3" xmlns:wptx1="http://www.garmin.com/xmlschemas/WaypointExtension/v1" xmlns:gpxtpx="http://www.garmin.com/xmlschemas/TrackPointExtension/v1" creator="GuideVTT.com" version="1.1" xmlns:xsi="http://www.w3.org/2001/XMLSchema-instance" xsi:schemaLocation="http://www.topografix.com/GPX/1/1 http://www.topografix.com/GPX/1/1/gpx.xsd http://www.garmin.com/xmlschemas/GpxExtensions/v3 http://www8.garmin.com/xmlschemas/GpxExtensionsv3.xsd http://www.garmin.com/xmlschemas/WaypointExtension/v1 http://www8.garmin.com/xmlschemas/WaypointExtensionv1.xsd http://www.garmin.com/xmlschemas/TrackPointExtension/v1 http://www.garmin.com/xmlschemas/TrackPointExtensionv1.xsd">
<metadata><link href="http://www.garmin.com"><text>Garmin International</text></link><time>2013-06-22T15:13:50Z</time></metadata>
<trk><name>jungfrauregion_354.gpx</name><extensions><gpxx:TrackExtension><gpxx:DisplayColor>Cyan</gpxx:DisplayColor></gpxx:TrackExtension></extensions><trkseg>
<trkpt lat="46.624632105" lon="8.033495368"><ele></ele><time>2014-4-15T7:58:25Z</time></trkpt>
<trkpt lat="46.624464216" lon="8.034642600"><ele></ele><time>2014-4-15T7:58:28Z</time></trkpt>
<trkpt lat="46.623627702" lon="8.034620304"><ele></ele><time>2014-4-15T7:58:31Z</time></trkpt>
<trkpt lat="46.623548996" lon="8.034188552"><ele></ele><time>2014-4-15T7:58:34Z</time></trkpt>
<trkpt lat="46.623929702" lon="8.033631323"><ele></ele><time>2014-4-15T7:58:37Z</time></trkpt>
<trkpt lat="46.623350093" lon="8.032658687"><ele></ele><time>2014-4-15T7:58:40Z</time></trkpt>
<trkpt lat="46.622722708" lon="8.030484421"><ele></ele><time>2014-4-15T7:58:43Z</time></trkpt>
<trkpt lat="46.621725261" lon="8.030277640"><ele></ele><time>2014-4-15T7:58:46Z</time></trkpt>
<trkpt lat="46.621694248" lon="8.025825089"><ele></ele><time>2014-4-15T7:58:49Z</time></trkpt>
<trkpt lat="46.621463411" lon="8.025235003"><ele></ele><time>2014-4-15T7:58:52Z</time></trkpt>
<trkpt lat="46.621955931" lon="8.023934718"><ele></ele><time>2014-4-15T7:58:55Z</time></trkpt>
<trkpt lat="46.621823832" lon="8.023371873"><ele></ele><time>2014-4-15T7:58:58Z</time></trkpt>
<trkpt lat="46.622393383" lon="8.021067018"><ele></ele><time>2014-4-15T7:59:1Z</time></trkpt>
<trkpt lat="46.622136142" lon="8.018596536"><ele></ele><time>2014-4-15T7:59:4Z</time></trkpt>
<trkpt lat="46.621280685" lon="8.016994502"><ele></ele><time>2014-4-15T7:59:7Z</time></trkpt>
<trkpt lat="46.621537004" lon="8.014346827"><ele></ele><time>2014-4-15T7:59:10Z</time></trkpt>
<trkpt lat="46.622042097" lon="8.012302313"><ele></ele><time>2014-4-15T7:59:13Z</time></trkpt>
<trkpt lat="46.624791026" lon="8.009458920"><ele></ele><time>2014-4-15T7:59:16Z</time></trkpt>
<trkpt lat="46.625357810" lon="8.007663013"><ele></ele><time>2014-4-15T7:59:19Z</time></trkpt>
<trkpt lat="46.626334805" lon="8.006563392"><ele></ele><time>2014-4-15T7:59:22Z</time></trkpt>
<trkpt lat="46.627142737" lon="8.006911408"><ele></ele><time>2014-4-15T7:59:25Z</time></trkpt>
<trkpt lat="46.627802812" lon="8.006226271"><ele></ele><time>2014-4-15T7:59:28Z</time></trkpt>
<trkpt lat="46.628171196" lon="8.004506472"><ele></ele><time>2014-4-15T7:59:31Z</time></trkpt>
<trkpt lat="46.629653452" lon="8.003098648"><ele></ele><time>2014-4-15T7:59:34Z</time></trkpt>
<trkpt lat="46.630374379" lon="8.001029911"><ele></ele><time>2014-4-15T7:59:37Z</time></trkpt>
<trkpt lat="46.631827885" lon="7.999987202"><ele></ele><time>2014-4-15T7:59:40Z</time></trkpt>
<trkpt lat="46.632195599" lon="7.998371758"><ele></ele><time>2014-4-15T7:59:43Z</time></trkpt>
<trkpt lat="46.632872941" lon="7.997830287"><ele></ele><time>2014-4-15T7:59:46Z</time></trkpt>
<trkpt lat="46.634379085" lon="7.995207841"><ele></ele><time>2014-4-15T7:59:49Z</time></trkpt>
<trkpt lat="46.635279050" lon="7.989588445"><ele></ele><time>2014-4-15T7:59:52Z</time></trkpt>
<trkpt lat="46.635281648" lon="7.987172445"><ele></ele><time>2014-4-15T7:59:55Z</time></trkpt>
<trkpt lat="46.635022899" lon="7.984858286"><ele></ele><time>2014-4-15T7:59:58Z</time></trkpt>
<trkpt lat="46.634581927" lon="7.984892987"><ele></ele><time>2014-4-15T8:0:1Z</time></trkpt>
<trkpt lat="46.634398531" lon="7.983741900"><ele></ele><time>2014-4-15T8:0:4Z</time></trkpt>
<trkpt lat="46.634590896" lon="7.979238303"><ele></ele><time>2014-4-15T8:0:7Z</time></trkpt>
<trkpt lat="46.634344300" lon="7.978125773"><ele></ele><time>2014-4-15T8:0:10Z</time></trkpt>
<trkpt lat="46.634805892" lon="7.977542728"><ele></ele><time>2014-4-15T8:0:13Z</time></trkpt>
<trkpt lat="46.635195483" lon="7.975052213"><ele></ele><time>2014-4-15T8:0:16Z</time></trkpt>
<trkpt lat="46.635742569" lon="7.975397212"><ele></ele><time>2014-4-15T8:0:19Z</time></trkpt>
<trkpt lat="46.636427538" lon="7.975116670"><ele></ele><time>2014-4-15T8:0:22Z</time></trkpt>
<trkpt lat="46.636400381" lon="7.973235771"><ele></ele><time>2014-4-15T8:0:25Z</time></trkpt>
<trkpt lat="46.637041932" lon="7.970721535"><ele></ele><time>2014-4-15T8:0:28Z</time></trkpt>
<trkpt lat="46.636902625" lon="7.969714534"><ele></ele><time>2014-4-15T8:0:31Z</time></trkpt>
<trkpt lat="46.637565969" lon="7.968284497"><ele></ele><time>2014-4-15T8:0:34Z</time></trkpt>
<trkpt lat="46.638008282" lon="7.966029346"><ele></ele><time>2014-4-15T8:0:37Z</time></trkpt>
<trkpt lat="46.638552267" lon="7.965107420"><ele></ele><time>2014-4-15T8:0:40Z</time></trkpt>
<trkpt lat="46.637883727" lon="7.957891608"><ele></ele><time>2014-4-15T8:0:43Z</time></trkpt>
<trkpt lat="46.638738345" lon="7.951931236"><ele></ele><time>2014-4-15T8:0:46Z</time></trkpt>
<trkpt lat="46.638315478" lon="7.949942043"><ele></ele><time>2014-4-15T8:0:49Z</time></trkpt>
<trkpt lat="46.638192432" lon="7.943227887"><ele></ele><time>2014-4-15T8:0:52Z</time></trkpt>
<trkpt lat="46.637757327" lon="7.941956939"><ele></ele><time>2014-4-15T8:0:55Z</time></trkpt>
<trkpt lat="46.637800494" lon="7.940324815"><ele></ele><time>2014-4-15T8:0:58Z</time></trkpt>
<trkpt lat="46.637491202" lon="7.939055124"><ele></ele><time>2014-4-15T8:1:1Z</time></trkpt>
<trkpt lat="46.637668815" lon="7.935478315"><ele></ele><time>2014-4-15T8:1:4Z</time></trkpt>
<trkpt lat="46.637964947" lon="7.933574198"><ele></ele><time>2014-4-15T8:1:7Z</time></trkpt>
<trkpt lat="46.637672754" lon="7.930424027"><ele></ele><time>2014-4-15T8:1:10Z</time></trkpt>
<trkpt lat="46.636682767" lon="7.928442964"><ele></ele><time>2014-4-15T8:1:13Z</time></trkpt>
<trkpt lat="46.636702381" lon="7.925961753"><ele></ele><time>2014-4-15T8:1:16Z</time></trkpt>
<trkpt lat="46.636458552" lon="7.924065934"><ele></ele><time>2014-4-15T8:1:19Z</time></trkpt>
<trkpt lat="46.635934515" lon="7.922494076"><ele></ele><time>2014-4-15T8:1:22Z</time></trkpt>
<trkpt lat="46.635863772" lon="7.920090398"><ele></ele><time>2014-4-15T8:1:25Z</time></trkpt>
<trkpt lat="46.633369233" lon="7.916450808"><ele></ele><time>2014-4-15T8:1:28Z</time></trkpt>
<trkpt lat="46.631811624" lon="7.912480300"><ele></ele><time>2014-4-15T8:1:31Z</time></trkpt>
<trkpt lat="46.631967528" lon="7.911750320"><ele></ele><time>2014-4-15T8:1:34Z</time></trkpt>
<trkpt lat="46.632264666" lon="7.911687624"><ele></ele><time>2014-4-15T8:1:37Z</time></trkpt>
<trkpt lat="46.632470191" lon="7.909848131"><ele></ele><time>2014-4-15T8:1:40Z</time></trkpt>
<trkpt lat="46.633721692" lon="7.907403968"><ele></ele><time>2014-4-15T8:1:43Z</time></trkpt>
<trkpt lat="46.634119581" lon="7.904704157"><ele></ele><time>2014-4-15T8:1:46Z</time></trkpt>
<trkpt lat="46.634355783" lon="7.904144581"><ele></ele><time>2014-4-15T8:1:49Z</time></trkpt>
<trkpt lat="46.633616667" lon="7.902296875"><ele></ele><time>2014-4-15T8:1:52Z</time></trkpt>
<trkpt lat="46.634411188" lon="7.899365388"><ele></ele><time>2014-4-15T8:1:55Z</time></trkpt>
<trkpt lat="46.634207759" lon="7.898501717"><ele></ele><time>2014-4-15T8:1:58Z</time></trkpt>
<trkpt lat="46.633168319" lon="7.899720445"><ele></ele><time>2014-4-15T8:2:1Z</time></trkpt>
<trkpt lat="46.632845784" lon="7.899391204"><ele></ele><time>2014-4-15T8:2:4Z</time></trkpt>
<trkpt lat="46.632024022" lon="7.900180779"><ele></ele><time>2014-4-15T8:2:7Z</time></trkpt>
<trkpt lat="46.630787691" lon="7.901149644"><ele></ele><time>2014-4-15T8:2:10Z</time></trkpt>
<trkpt lat="46.628953060" lon="7.903236235"><ele></ele><time>2014-4-15T8:2:13Z</time></trkpt>
<trkpt lat="46.627284810" lon="7.904227395"><ele></ele><time>2014-4-15T8:2:16Z</time></trkpt>
<trkpt lat="46.625169134" lon="7.904626960"><ele></ele><time>2014-4-15T8:2:19Z</time></trkpt>
<trkpt lat="46.621940928" lon="7.904324960"><ele></ele><time>2014-4-15T8:2:22Z</time></trkpt>
<trkpt lat="46.620920766" lon="7.903010594"><ele></ele><time>2014-4-15T8:2:25Z</time></trkpt>
<trkpt lat="46.619950980" lon="7.902584458"><ele></ele><time>2014-4-15T8:2:28Z</time></trkpt>
<trkpt lat="46.618102267" lon="7.903704448"><ele></ele><time>2014-4-15T8:2:31Z</time></trkpt>
<trkpt lat="46.616433850" lon="7.902541207"><ele></ele><time>2014-4-15T8:2:34Z</time></trkpt>
<trkpt lat="46.614270899" lon="7.903514765"><ele></ele><time>2014-4-15T8:2:37Z</time></trkpt>
<trkpt lat="46.612072745" lon="7.902086070"><ele></ele><time>2014-4-15T8:2:40Z</time></trkpt>
<trkpt lat="46.610585209" lon="7.902882686"><ele></ele><time>2014-4-15T8:2:43Z</time></trkpt>
<trkpt lat="46.608956186" lon="7.903077565"><ele></ele><time>2014-4-15T8:2:46Z</time></trkpt>
<trkpt lat="46.608332824" lon="7.903724816"><ele></ele><time>2014-4-15T8:2:49Z</time></trkpt>
<trkpt lat="46.607759837" lon="7.905260129"><ele></ele><time>2014-4-15T8:2:52Z</time></trkpt>
<trkpt lat="46.603416586" lon="7.907049917"><ele></ele><time>2014-4-15T8:2:55Z</time></trkpt>
<trkpt lat="46.601537783" lon="7.906733500"><ele></ele><time>2014-4-15T8:2:58Z</time></trkpt>
<trkpt lat="46.600483423" lon="7.907181177"><ele></ele><time>2014-4-15T8:3:1Z</time></trkpt>
<trkpt lat="46.599315908" lon="7.908893768"><ele></ele><time>2014-4-15T8:3:4Z</time></trkpt>
<trkpt lat="46.599077778" lon="7.909909654"><ele></ele><time>2014-4-15T8:3:7Z</time></trkpt>
<trkpt lat="46.598861273" lon="7.910064384"><ele></ele><time>2014-4-15T8:3:10Z</time></trkpt>
<trkpt lat="46.598700006" lon="7.909906385"><ele></ele><time>2014-4-15T8:3:13Z</time></trkpt>
<trkpt lat="46.598700844" lon="7.909697508"><ele></ele><time>2014-4-15T8:3:16Z</time></trkpt>
<trkpt lat="46.598883569" lon="7.909033578"><ele></ele><time>2014-4-15T8:3:19Z</time></trkpt>
<trkpt lat="46.600243449" lon="7.906461256"><ele></ele><time>2014-4-15T8:3:22Z</time></trkpt>
<trkpt lat="46.599576501" lon="7.906768704"><ele></ele><time>2014-4-15T8:3:25Z</time></trkpt>
<trkpt lat="46.598961772" lon="7.907520309"><ele></ele><time>2014-4-15T8:3:28Z</time></trkpt>
<trkpt lat="46.597845890" lon="7.907615108"><ele></ele><time>2014-4-15T8:3:31Z</time></trkpt>
<trkpt lat="46.597702475" lon="7.907483345"><ele></ele><time>2014-4-15T8:3:34Z</time></trkpt>
<trkpt lat="46.597486809" lon="7.907429282"><ele></ele><time>2014-4-15T8:3:37Z</time></trkpt>
<trkpt lat="46.597063523" lon="7.907556100"><ele></ele><time>2014-4-15T8:3:40Z</time></trkpt>
<trkpt lat="46.591118826" lon="7.907178327"><ele></ele><time>2014-4-15T8:3:43Z</time></trkpt>
<trkpt lat="46.589919711" lon="7.907846449"><ele></ele><time>2014-4-15T8:3:46Z</time></trkpt>
<trkpt lat="46.588713806" lon="7.907953486"><ele></ele><time>2014-4-15T8:3:49Z</time></trkpt>
<trkpt lat="46.587584931" lon="7.909026621"><ele></ele><time>2014-4-15T8:3:52Z</time></trkpt>
<trkpt lat="46.585079581" lon="7.910126913"><ele></ele><time>2014-4-15T8:3:55Z</time></trkpt>
<trkpt lat="46.582541205" lon="7.910496220"><ele></ele><time>2014-4-15T8:3:58Z</time></trkpt>
<trkpt lat="46.579255080" lon="7.908980353"><ele></ele><time>2014-4-15T8:4:1Z</time></trkpt>
<trkpt lat="46.576783424" lon="7.908450114"><ele></ele><time>2014-4-15T8:4:4Z</time></trkpt>
<trkpt lat="46.574361054" lon="7.906863671"><ele></ele><time>2014-4-15T8:4:7Z</time></trkpt>
<trkpt lat="46.570962612" lon="7.906403840"><ele></ele><time>2014-4-15T8:4:10Z</time></trkpt>
<trkpt lat="46.567255296" lon="7.906658733"><ele></ele><time>2014-4-15T8:4:13Z</time></trkpt>
<trkpt lat="46.565154959" lon="7.905518878"><ele></ele><time>2014-4-15T8:4:16Z</time></trkpt>
<trkpt lat="46.562620187" lon="7.905027531"><ele></ele><time>2014-4-15T8:4:19Z</time></trkpt>
<trkpt lat="46.560361851" lon="7.902921410"><ele></ele><time>2014-4-15T8:4:22Z</time></trkpt>
<trkpt lat="46.559772771" lon="7.901794799"><ele></ele><time>2014-4-15T8:4:25Z</time></trkpt>
<trkpt lat="46.555900918" lon="7.900483701"><ele></ele><time>2014-4-15T8:4:28Z</time></trkpt>
<trkpt lat="46.554816971" lon="7.899353066"><ele></ele><time>2014-4-15T8:4:31Z</time></trkpt>
<trkpt lat="46.554764919" lon="7.898883177"><ele></ele><time>2014-4-15T8:4:34Z</time></trkpt>
<trkpt lat="46.553840395" lon="7.898392836"><ele></ele><time>2014-4-15T8:4:37Z</time></trkpt>
<trkpt lat="46.551888166" lon="7.898428375"><ele></ele><time>2014-4-15T8:4:40Z</time></trkpt>
<trkpt lat="46.549634105" lon="7.899687085"><ele></ele><time>2014-4-15T8:4:43Z</time></trkpt>
<trkpt lat="46.549717588" lon="7.901291549"><ele></ele><time>2014-4-15T8:4:46Z</time></trkpt>
<trkpt lat="46.548539009" lon="7.901320634"><ele></ele><time>2014-4-15T8:4:49Z</time></trkpt>
<trkpt lat="46.545052305" lon="7.902633743"><ele></ele><time>2014-4-15T8:4:52Z</time></trkpt>
<trkpt lat="46.543814717" lon="7.901697401"><ele></ele><time>2014-4-15T8:4:55Z</time></trkpt>
<trkpt lat="46.543655964" lon="7.903117128"><ele></ele><time>2014-4-15T8:4:58Z</time></trkpt>
<trkpt lat="46.542733703" lon="7.904256564"><ele></ele><time>2014-4-15T8:5:1Z</time></trkpt>
<trkpt lat="46.541727874" lon="7.901640488"><ele></ele><time>2014-4-15T8:5:4Z</time></trkpt>
<trkpt lat="46.541885119" lon="7.902789060"><ele></ele><time>2014-4-15T8:5:7Z</time></trkpt>
<trkpt lat="46.541473651" lon="7.902224958"><ele></ele><time>2014-4-15T8:5:10Z</time></trkpt>
<trkpt lat="46.541496702" lon="7.903189883"><ele></ele><time>2014-4-15T8:5:13Z</time></trkpt>
<trkpt lat="46.542161806" lon="7.903338997"><ele></ele><time>2014-4-15T8:5:16Z</time></trkpt>
<trkpt lat="46.542160045" lon="7.903756164"><ele></ele><time>2014-4-15T8:5:19Z</time></trkpt>
<trkpt lat="46.540669492" lon="7.905294746"><ele></ele><time>2014-4-15T8:5:22Z</time></trkpt>
<trkpt lat="46.538927145" lon="7.904588822"><ele></ele><time>2014-4-15T8:5:25Z</time></trkpt>
<trkpt lat="46.536584236" lon="7.905585431"><ele></ele><time>2014-4-15T8:5:28Z</time></trkpt>
<trkpt lat="46.536525730" lon="7.904476924"><ele></ele><time>2014-4-15T8:5:31Z</time></trkpt>
<trkpt lat="46.537254788" lon="7.904391931"><ele></ele><time>2014-4-15T8:5:34Z</time></trkpt>
<trkpt lat="46.537410859" lon="7.903624149"><ele></ele><time>2014-4-15T8:5:37Z</time></trkpt>
<trkpt lat="46.539981505" lon="7.901938464"><ele></ele><time>2014-4-15T8:5:40Z</time></trkpt>
<trkpt lat="46.540198596" lon="7.899424229"><ele></ele><time>2014-4-15T8:5:43Z</time></trkpt>
<trkpt lat="46.540934360" lon="7.897683559"><ele></ele><time>2014-4-15T8:5:46Z</time></trkpt>
<trkpt lat="46.539990809" lon="7.895198576"><ele></ele><time>2014-4-15T8:5:49Z</time></trkpt>
<trkpt lat="46.540097259" lon="7.893309211"><ele></ele><time>2014-4-15T8:5:52Z</time></trkpt>
<trkpt lat="46.540474864" lon="7.893364532"><ele></ele><time>2014-4-15T8:5:55Z</time></trkpt>
<trkpt lat="46.540604448" lon="7.892453000"><ele></ele><time>2014-4-15T8:5:58Z</time></trkpt>
<trkpt lat="46.540983059" lon="7.892260635"><ele></ele><time>2014-4-15T8:6:1Z</time></trkpt>
<trkpt lat="46.541532073" lon="7.889931640"><ele></ele><time>2014-4-15T8:6:4Z</time></trkpt>
<trkpt lat="46.541286064" lon="7.888456425"><ele></ele><time>2014-4-15T8:6:7Z</time></trkpt>
<trkpt lat="46.541574067" lon="7.888419712"><ele></ele><time>2014-4-15T8:6:10Z</time></trkpt>
<trkpt lat="46.542045213" lon="7.889844636"><ele></ele><time>2014-4-15T8:6:13Z</time></trkpt>
<trkpt lat="46.542594898" lon="7.894112365"><ele></ele><time>2014-4-15T8:6:16Z</time></trkpt>
<trkpt lat="46.544396337" lon="7.895783298"><ele></ele><time>2014-4-15T8:6:19Z</time></trkpt>
<trkpt lat="46.545915641" lon="7.896030815"><ele></ele><time>2014-4-15T8:6:22Z</time></trkpt>
<trkpt lat="46.546709659" lon="7.895437796"><ele></ele><time>2014-4-15T8:6:25Z</time></trkpt>
<trkpt lat="46.544498429" lon="7.892759442"><ele></ele><time>2014-4-15T8:6:28Z</time></trkpt>
<trkpt lat="46.544316290" lon="7.891050037"><ele></ele><time>2014-4-15T8:6:31Z</time></trkpt>
<trkpt lat="46.544522066" lon="7.886788426"><ele></ele><time>2014-4-15T8:6:34Z</time></trkpt>
<trkpt lat="46.544930264" lon="7.888212930"><ele></ele><time>2014-4-15T8:6:37Z</time></trkpt>
<trkpt lat="46.544977035" lon="7.887756955"><ele></ele><time>2014-4-15T8:6:40Z</time></trkpt>
<trkpt lat="46.547563858" lon="7.891038051"><ele></ele><time>2014-4-15T8:6:43Z</time></trkpt>
<trkpt lat="46.548991380" lon="7.891741041"><ele></ele><time>2014-4-15T8:6:46Z</time></trkpt>
<trkpt lat="46.550349332" lon="7.891843636"><ele></ele><time>2014-4-15T8:6:49Z</time></trkpt>
<trkpt lat="46.550954925" lon="7.891118517"><ele></ele><time>2014-4-15T8:6:52Z</time></trkpt>
<trkpt lat="46.551303696" lon="7.891629981"><ele></ele><time>2014-4-15T8:6:55Z</time></trkpt>
<trkpt lat="46.552508930" lon="7.891679183"><ele></ele><time>2014-4-15T8:6:58Z</time></trkpt>
<trkpt lat="46.555193067" lon="7.893083906"><ele></ele><time>2014-4-15T8:7:1Z</time></trkpt>
<trkpt lat="46.553491289" lon="7.891231002"><ele></ele><time>2014-4-15T8:7:4Z</time></trkpt>
<trkpt lat="46.556303753" lon="7.892036922"><ele></ele><time>2014-4-15T8:7:7Z</time></trkpt>
<trkpt lat="46.556655960" lon="7.891674740"><ele></ele><time>2014-4-15T8:7:10Z</time></trkpt>
<trkpt lat="46.558134193" lon="7.893199828"><ele></ele><time>2014-4-15T8:7:13Z</time></trkpt>
<trkpt lat="46.558449436" lon="7.893111231"><ele></ele><time>2014-4-15T8:7:16Z</time></trkpt>
<trkpt lat="46.558740623" lon="7.892279075"><ele></ele><time>2014-4-15T8:7:19Z</time></trkpt>
<trkpt lat="46.559373206" lon="7.893797122"><ele></ele><time>2014-4-15T8:7:22Z</time></trkpt>
<trkpt lat="46.560723782" lon="7.895738622"><ele></ele><time>2014-4-15T8:7:25Z</time></trkpt>
<trkpt lat="46.562077627" lon="7.896858612"><ele></ele><time>2014-4-15T8:7:28Z</time></trkpt>
<trkpt lat="46.562805427" lon="7.897086516"><ele></ele><time>2014-4-15T8:7:31Z</time></trkpt>
<trkpt lat="46.563095106" lon="7.896632468"><ele></ele><time>2014-4-15T8:7:34Z</time></trkpt>
<trkpt lat="46.563724754" lon="7.896637833"><ele></ele><time>2014-4-15T8:7:37Z</time></trkpt>
<trkpt lat="46.566636879" lon="7.897262452"><ele></ele><time>2014-4-15T8:7:40Z</time></trkpt>
<trkpt lat="46.574190147" lon="7.900274573"><ele></ele><time>2014-4-15T8:7:43Z</time></trkpt>
<trkpt lat="46.575684892" lon="7.899909038"><ele></ele><time>2014-4-15T8:7:46Z</time></trkpt>
<trkpt lat="46.576320827" lon="7.898361990"><ele></ele><time>2014-4-15T8:7:49Z</time></trkpt>
<trkpt lat="46.576299621" lon="7.896939917"><ele></ele><time>2014-4-15T8:7:52Z</time></trkpt>
<trkpt lat="46.577822445" lon="7.896300545"><ele></ele><time>2014-4-15T8:7:55Z</time></trkpt>
<trkpt lat="46.578141544" lon="7.895246521"><ele></ele><time>2014-4-15T8:7:58Z</time></trkpt>
<trkpt lat="46.579626985" lon="7.894945946"><ele></ele><time>2014-4-15T8:8:1Z</time></trkpt>
<trkpt lat="46.581721874" lon="7.895237552"><ele></ele><time>2014-4-15T8:8:4Z</time></trkpt>
<trkpt lat="46.582062347" lon="7.895566626"><ele></ele><time>2014-4-15T8:8:7Z</time></trkpt>
<trkpt lat="46.582060000" lon="7.896153694"><ele></ele><time>2014-4-15T8:8:10Z</time></trkpt>
<trkpt lat="46.583682485" lon="7.895345427"><ele></ele><time>2014-4-15T8:8:13Z</time></trkpt>
<trkpt lat="46.584185734" lon="7.895480208"><ele></ele><time>2014-4-15T8:8:16Z</time></trkpt>
<trkpt lat="46.585359871" lon="7.894302802"><ele></ele><time>2014-4-15T8:8:19Z</time></trkpt>
<trkpt lat="46.584946811" lon="7.896360811"><ele></ele><time>2014-4-15T8:8:22Z</time></trkpt>
<trkpt lat="46.586469384" lon="7.895786483"><ele></ele><time>2014-4-15T8:8:25Z</time></trkpt>
<trkpt lat="46.587447217" lon="7.896473296"><ele></ele><time>2014-4-15T8:8:28Z</time></trkpt>
<trkpt lat="46.588553963" lon="7.896404313"><ele></ele><time>2014-4-15T8:8:31Z</time></trkpt>
<trkpt lat="46.589214960" lon="7.897558166"><ele></ele><time>2014-4-15T8:8:34Z</time></trkpt>
<trkpt lat="46.589754336" lon="7.897654139"><ele></ele><time>2014-4-15T8:8:37Z</time></trkpt>
<trkpt lat="46.589651825" lon="7.898527533"><ele></ele><time>2014-4-15T8:8:40Z</time></trkpt>
<trkpt lat="46.590127163" lon="7.898896923"><ele></ele><time>2014-4-15T8:8:43Z</time></trkpt>
<trkpt lat="46.592384493" lon="7.896802118"><ele></ele><time>2014-4-15T8:8:46Z</time></trkpt>
<trkpt lat="46.594129605" lon="7.896816954"><ele></ele><time>2014-4-15T8:8:49Z</time></trkpt>
<trkpt lat="46.595245069" lon="7.894581752"><ele></ele><time>2014-4-15T8:8:52Z</time></trkpt>
<trkpt lat="46.596803432" lon="7.894046819"><ele></ele><time>2014-4-15T8:8:55Z</time></trkpt>
<trkpt lat="46.598184938" lon="7.895011157"><ele></ele><time>2014-4-15T8:8:58Z</time></trkpt>
<trkpt lat="46.600849545" lon="7.894537663"><ele></ele><time>2014-4-15T8:9:1Z</time></trkpt>
<trkpt lat="46.601989064" lon="7.895278120"><ele></ele><time>2014-4-15T8:9:4Z</time></trkpt>
<trkpt lat="46.607719520" lon="7.895235205"><ele></ele><time>2014-4-15T8:9:7Z</time></trkpt>
<trkpt lat="46.603916064" lon="7.897043349"><ele></ele><time>2014-4-15T8:9:10Z</time></trkpt>
<trkpt lat="46.602606392" lon="7.898363583"><ele></ele><time>2014-4-15T8:9:13Z</time></trkpt>
<trkpt lat="46.599689238" lon="7.898978228"><ele></ele><time>2014-4-15T8:9:16Z</time></trkpt>
<trkpt lat="46.598993037" lon="7.899846761"><ele></ele><time>2014-4-15T8:9:19Z</time></trkpt>
<trkpt lat="46.599721843" lon="7.899813820"><ele></ele><time>2014-4-15T8:9:22Z</time></trkpt>
<trkpt lat="46.600699760" lon="7.900461657"><ele></ele><time>2014-4-15T8:9:25Z</time></trkpt>
<trkpt lat="46.601681784" lon="7.900104588"><ele></ele><time>2014-4-15T8:9:28Z</time></trkpt>
<trkpt lat="46.601136876" lon="7.901378972"><ele></ele><time>2014-4-15T8:9:31Z</time></trkpt>
<trkpt lat="46.600667574" lon="7.901740400"><ele></ele><time>2014-4-15T8:9:34Z</time></trkpt>
<trkpt lat="46.599047268" lon="7.902013650"><ele></ele><time>2014-4-15T8:9:37Z</time></trkpt>
<trkpt lat="46.599962739" lon="7.902517403"><ele></ele><time>2014-4-15T8:9:40Z</time></trkpt>
<trkpt lat="46.601104187" lon="7.902762154"><ele></ele><time>2014-4-15T8:9:43Z</time></trkpt>
<trkpt lat="46.602531290" lon="7.901351731"><ele></ele><time>2014-4-15T8:9:46Z</time></trkpt>
<trkpt lat="46.605796209" lon="7.901471006"><ele></ele><time>2014-4-15T8:9:49Z</time></trkpt>
<trkpt lat="46.603506776" lon="7.902600048"><ele></ele><time>2014-4-15T8:9:52Z</time></trkpt>
<trkpt lat="46.602869919" lon="7.904343484"><ele></ele><time>2014-4-15T8:9:55Z</time></trkpt>
<trkpt lat="46.601727130" lon="7.904425040"><ele></ele><time>2014-4-15T8:9:58Z</time></trkpt>
<trkpt lat="46.601184234" lon="7.905203383"><ele></ele><time>2014-4-15T8:10:1Z</time></trkpt>
<trkpt lat="46.599383801" lon="7.905501109"><ele></ele><time>2014-4-15T8:10:4Z</time></trkpt>
<trkpt lat="46.598617109" lon="7.906003436"><ele></ele><time>2014-4-15T8:10:7Z</time></trkpt>
<trkpt lat="46.598551311" lon="7.906694608"><ele></ele><time>2014-4-15T8:10:10Z</time></trkpt>
<trkpt lat="46.597984442" lon="7.906728806"><ele></ele><time>2014-4-15T8:10:13Z</time></trkpt>
<trkpt lat="46.597839184" lon="7.907053856"><ele></ele><time>2014-4-15T8:10:16Z</time></trkpt>
<trkpt lat="46.597793587" lon="7.907210011"><ele></ele><time>2014-4-15T8:10:19Z</time></trkpt>
<trkpt lat="46.597791910" lon="7.907614606"><ele></ele><time>2014-4-15T8:10:22Z</time></trkpt>
<trkpt lat="46.598295830" lon="7.907566745"><ele></ele><time>2014-4-15T8:10:25Z</time></trkpt>
<trkpt lat="46.598997647" lon="7.907533720"><ele></ele><time>2014-4-15T8:10:28Z</time></trkpt>
<trkpt lat="46.599540124" lon="7.906872807"><ele></ele><time>2014-4-15T8:10:31Z</time></trkpt>
<trkpt lat="46.600198438" lon="7.906473912"><ele></ele><time>2014-4-15T8:10:34Z</time></trkpt>
<trkpt lat="46.598838475" lon="7.909046235"><ele></ele><time>2014-4-15T8:10:37Z</time></trkpt>
<trkpt lat="46.598700425" lon="7.909801947"><ele></ele><time>2014-4-15T8:10:40Z</time></trkpt>
<trkpt lat="46.598843252" lon="7.910077292"><ele></ele><time>2014-4-15T8:10:43Z</time></trkpt>
<trkpt lat="46.599068725" lon="7.909935638"><ele></ele><time>2014-4-15T8:10:46Z</time></trkpt>
<trkpt lat="46.599270897" lon="7.908906424"><ele></ele><time>2014-4-15T8:10:49Z</time></trkpt>
<trkpt lat="46.600438412" lon="7.907193834"><ele></ele><time>2014-4-15T8:10:52Z</time></trkpt>
<trkpt lat="46.601492688" lon="7.906746157"><ele></ele><time>2014-4-15T8:10:55Z</time></trkpt>
<trkpt lat="46.603371492" lon="7.907062573"><ele></ele><time>2014-4-15T8:10:58Z</time></trkpt>
<trkpt lat="46.604407160" lon="7.906784378"><ele></ele><time>2014-4-15T8:11:1Z</time></trkpt>
<trkpt lat="46.605598228" lon="7.905907128"><ele></ele><time>2014-4-15T8:11:4Z</time></trkpt>
<trkpt lat="46.607714826" lon="7.905272786"><ele></ele><time>2014-4-15T8:11:7Z</time></trkpt>
<trkpt lat="46.608287813" lon="7.903737472"><ele></ele><time>2014-4-15T8:11:10Z</time></trkpt>
<trkpt lat="46.608911175" lon="7.903090222"><ele></ele><time>2014-4-15T8:11:13Z</time></trkpt>
<trkpt lat="46.610540198" lon="7.902895343"><ele></ele><time>2014-4-15T8:11:16Z</time></trkpt>
<trkpt lat="46.612027735" lon="7.902098726"><ele></ele><time>2014-4-15T8:11:19Z</time></trkpt>
<trkpt lat="46.614225889" lon="7.903527506"><ele></ele><time>2014-4-15T8:11:22Z</time></trkpt>
<trkpt lat="46.616388839" lon="7.902553864"><ele></ele><time>2014-4-15T8:11:25Z</time></trkpt>
<trkpt lat="46.618057257" lon="7.903717104"><ele></ele><time>2014-4-15T8:11:28Z</time></trkpt>
<trkpt lat="46.619905969" lon="7.902597114"><ele></ele><time>2014-4-15T8:11:31Z</time></trkpt>
<trkpt lat="46.620875755" lon="7.903023250"><ele></ele><time>2014-4-15T8:11:34Z</time></trkpt>
<trkpt lat="46.621895917" lon="7.904337617"><ele></ele><time>2014-4-15T8:11:37Z</time></trkpt>
<trkpt lat="46.623982843" lon="7.904355638"><ele></ele><time>2014-4-15T8:11:40Z</time></trkpt>
<trkpt lat="46.625124123" lon="7.904639617"><ele></ele><time>2014-4-15T8:11:43Z</time></trkpt>
<trkpt lat="46.627284810" lon="7.904227395"><ele></ele><time>2014-4-15T8:11:46Z</time></trkpt>
<trkpt lat="46.628952892" lon="7.903262386"><ele></ele><time>2014-4-15T8:11:49Z</time></trkpt>
<trkpt lat="46.630778639" lon="7.901162552"><ele></ele><time>2014-4-15T8:11:52Z</time></trkpt>
<trkpt lat="46.632493660" lon="7.899714662"><ele></ele><time>2014-4-15T8:11:55Z</time></trkpt>
<trkpt lat="46.632855004" lon="7.899339069"><ele></ele><time>2014-4-15T8:11:58Z</time></trkpt>
<trkpt lat="46.633140994" lon="7.899798565"><ele></ele><time>2014-4-15T8:12:1Z</time></trkpt>
<trkpt lat="46.634180434" lon="7.898579836"><ele></ele><time>2014-4-15T8:12:4Z</time></trkpt>
<trkpt lat="46.634383863" lon="7.899443507"><ele></ele><time>2014-4-15T8:12:7Z</time></trkpt>
<trkpt lat="46.633598311" lon="7.902375078"><ele></ele><time>2014-4-15T8:12:10Z</time></trkpt>
<trkpt lat="46.634444883" lon="7.904354297"><ele></ele><time>2014-4-15T8:12:13Z</time></trkpt>
<trkpt lat="46.634092256" lon="7.904782277"><ele></ele><time>2014-4-15T8:12:16Z</time></trkpt>
<trkpt lat="46.633694367" lon="7.907482088"><ele></ele><time>2014-4-15T8:12:19Z</time></trkpt>
<trkpt lat="46.632442866" lon="7.909926251"><ele></ele><time>2014-4-15T8:12:22Z</time></trkpt>
<trkpt lat="46.632237341" lon="7.911765743"><ele></ele><time>2014-4-15T8:12:25Z</time></trkpt>
<trkpt lat="46.631940203" lon="7.911828440"><ele></ele><time>2014-4-15T8:12:28Z</time></trkpt>
<trkpt lat="46.631784299" lon="7.912558420"><ele></ele><time>2014-4-15T8:12:31Z</time></trkpt>
<trkpt lat="46.633341908" lon="7.916528927"><ele></ele><time>2014-4-15T8:12:34Z</time></trkpt>
<trkpt lat="46.635737624" lon="7.920128452"><ele></ele><time>2014-4-15T8:12:37Z</time></trkpt>
<trkpt lat="46.635934683" lon="7.922454849"><ele></ele><time>2014-4-15T8:12:40Z</time></trkpt>
<trkpt lat="46.636476489" lon="7.924079178"><ele></ele><time>2014-4-15T8:12:43Z</time></trkpt>
<trkpt lat="46.636720486" lon="7.925922778"><ele></ele><time>2014-4-15T8:12:46Z</time></trkpt>
<trkpt lat="46.636664663" lon="7.928455872"><ele></ele><time>2014-4-15T8:12:49Z</time></trkpt>
<trkpt lat="46.637645429" lon="7.930502146"><ele></ele><time>2014-4-15T8:12:52Z</time></trkpt>
<trkpt lat="46.637956062" lon="7.933548046"><ele></ele><time>2014-4-15T8:12:55Z</time></trkpt>
<trkpt lat="46.637641490" lon="7.935556434"><ele></ele><time>2014-4-15T8:12:58Z</time></trkpt>
<trkpt lat="46.637463877" lon="7.939133244"><ele></ele><time>2014-4-15T8:13:1Z</time></trkpt>
<trkpt lat="46.637773169" lon="7.940402934"><ele></ele><time>2014-4-15T8:13:4Z</time></trkpt>
<trkpt lat="46.637730002" lon="7.942035059"><ele></ele><time>2014-4-15T8:13:7Z</time></trkpt>
<trkpt lat="46.638165107" lon="7.943306006"><ele></ele><time>2014-4-15T8:13:10Z</time></trkpt>
<trkpt lat="46.638288153" lon="7.950020162"><ele></ele><time>2014-4-15T8:13:13Z</time></trkpt>
<trkpt lat="46.638711020" lon="7.952009272"><ele></ele><time>2014-4-15T8:13:16Z</time></trkpt>
<trkpt lat="46.637856402" lon="7.957969727"><ele></ele><time>2014-4-15T8:13:19Z</time></trkpt>
<trkpt lat="46.638524942" lon="7.965185456"><ele></ele><time>2014-4-15T8:13:22Z</time></trkpt>
<trkpt lat="46.637980873" lon="7.966107465"><ele></ele><time>2014-4-15T8:13:25Z</time></trkpt>
<trkpt lat="46.637538644" lon="7.968362533"><ele></ele><time>2014-4-15T8:13:28Z</time></trkpt>
<trkpt lat="46.636875300" lon="7.969792653"><ele></ele><time>2014-4-15T8:13:31Z</time></trkpt>
<trkpt lat="46.637014523" lon="7.970799655"><ele></ele><time>2014-4-15T8:13:34Z</time></trkpt>
<trkpt lat="46.636373056" lon="7.973313890"><ele></ele><time>2014-4-15T8:13:37Z</time></trkpt>
<trkpt lat="46.636400213" lon="7.975194789"><ele></ele><time>2014-4-15T8:13:40Z</time></trkpt>
<trkpt lat="46.635715244" lon="7.975475332"><ele></ele><time>2014-4-15T8:13:43Z</time></trkpt>
<trkpt lat="46.635168074" lon="7.975130333"><ele></ele><time>2014-4-15T8:13:46Z</time></trkpt>
<trkpt lat="46.634778483" lon="7.977620848"><ele></ele><time>2014-4-15T8:13:49Z</time></trkpt>
<trkpt lat="46.634316975" lon="7.978203893"><ele></ele><time>2014-4-15T8:13:52Z</time></trkpt>
<trkpt lat="46.634563571" lon="7.979316423"><ele></ele><time>2014-4-15T8:13:55Z</time></trkpt>
<trkpt lat="46.634371206" lon="7.983819935"><ele></ele><time>2014-4-15T8:13:58Z</time></trkpt>
<trkpt lat="46.634554602" lon="7.984971022"><ele></ele><time>2014-4-15T8:14:1Z</time></trkpt>
<trkpt lat="46.634995574" lon="7.984936321"><ele></ele><time>2014-4-15T8:14:4Z</time></trkpt>
<trkpt lat="46.635254323" lon="7.987250481"><ele></ele><time>2014-4-15T8:14:7Z</time></trkpt>
<trkpt lat="46.635251641" lon="7.989666481"><ele></ele><time>2014-4-15T8:14:10Z</time></trkpt>
<trkpt lat="46.634351760" lon="7.995285960"><ele></ele><time>2014-4-15T8:14:13Z</time></trkpt>
<trkpt lat="46.632845616" lon="7.997908322"><ele></ele><time>2014-4-15T8:14:16Z</time></trkpt>
<trkpt lat="46.632168274" lon="7.998449793"><ele></ele><time>2014-4-15T8:14:19Z</time></trkpt>
<trkpt lat="46.631800476" lon="8.000065321"><ele></ele><time>2014-4-15T8:14:22Z</time></trkpt>
<trkpt lat="46.630347054" lon="8.001107946"><ele></ele><time>2014-4-15T8:14:25Z</time></trkpt>
<trkpt lat="46.629626127" lon="8.003176684"><ele></ele><time>2014-4-15T8:14:28Z</time></trkpt>
<trkpt lat="46.628143787" lon="8.004584592"><ele></ele><time>2014-4-15T8:14:31Z</time></trkpt>
<trkpt lat="46.627775403" lon="8.006304307"><ele></ele><time>2014-4-15T8:14:34Z</time></trkpt>
<trkpt lat="46.627115328" lon="8.006989444"><ele></ele><time>2014-4-15T8:14:37Z</time></trkpt>
<trkpt lat="46.626307480" lon="8.006641511"><ele></ele><time>2014-4-15T8:14:40Z</time></trkpt>
<trkpt lat="46.625330402" lon="8.007741049"><ele></ele><time>2014-4-15T8:14:43Z</time></trkpt>
<trkpt lat="46.624763701" lon="8.009536956"><ele></ele><time>2014-4-15T8:14:46Z</time></trkpt>
<trkpt lat="46.622014688" lon="8.012380349"><ele></ele><time>2014-4-15T8:14:49Z</time></trkpt>
<trkpt lat="46.621509595" lon="8.014424862"><ele></ele><time>2014-4-15T8:14:52Z</time></trkpt>
<trkpt lat="46.621253276" lon="8.017072538"><ele></ele><time>2014-4-15T8:14:55Z</time></trkpt>
<trkpt lat="46.622108733" lon="8.018674655"><ele></ele><time>2014-4-15T8:14:58Z</time></trkpt>
<trkpt lat="46.622365974" lon="8.021145053"><ele></ele><time>2014-4-15T8:15:1Z</time></trkpt>
<trkpt lat="46.621796424" lon="8.023449909"><ele></ele><time>2014-4-15T8:15:4Z</time></trkpt>
<trkpt lat="46.621928522" lon="8.024012754"><ele></ele><time>2014-4-15T8:15:7Z</time></trkpt>
<trkpt lat="46.621436002" lon="8.025313038"><ele></ele><time>2014-4-15T8:15:10Z</time></trkpt>
<trkpt lat="46.621666923" lon="8.025903124"><ele></ele><time>2014-4-15T8:15:13Z</time></trkpt>
<trkpt lat="46.621697852" lon="8.030355675"><ele></ele><time>2014-4-15T8:15:16Z</time></trkpt>
<trkpt lat="46.622695299" lon="8.030562457"><ele></ele><time>2014-4-15T8:15:19Z</time></trkpt>
<trkpt lat="46.623322684" lon="8.032736722"><ele></ele><time>2014-4-15T8:15:22Z</time></trkpt>
<trkpt lat="46.623902293" lon="8.033709358"><ele></ele><time>2014-4-15T8:15:25Z</time></trkpt>
<trkpt lat="46.623521587" lon="8.034266587"><ele></ele><time>2014-4-15T8:15:28Z</time></trkpt>
<trkpt lat="46.623600293" lon="8.034698339"><ele></ele><time>2014-4-15T8:15:31Z</time></trkpt>
<trkpt lat="46.624436807" lon="8.034720635"><ele></ele><time>2014-4-15T8:15:34Z</time></trkpt>
<trkpt lat="46.624511238" lon="8.034251416"><ele></ele><time>2014-4-15T8:15:37Z</time></trkpt>
<trkpt lat="46.624595895" lon="8.033534177"><ele></ele><time>2014-4-15T8:15:40Z</time></trkpt>
</trkseg></trk></gpx>